createdAt,value
2018-04-16T00:00:05.424Z,89.10
2018-04-16T00:02:31.534Z,89.00
2018-04-16T00:04:57.662Z,88.60
2018-04-16T00:07:23.809Z,89.00
2018-04-16T00:09:49.964Z,88.50
2018-04-16T00:12:16.899Z,88.40
2018-04-16T00:14:43.758Z,88.50
2018-04-16T00:17:09.929Z,88.40
2018-04-16T00:19:36.076Z,88.00
2018-04-16T00:22:02.238Z,88.50
2018-04-16T00:24:28.366Z,88.70
2018-04-16T00:26:54.474Z,89.00
2018-04-16T00:29:21.342Z,89.40
2018-04-16T00:31:53.612Z,89.50
2018-04-16T00:34:25.756Z,89.70
2018-04-16T00:36:57.983Z,89.40
2018-04-16T00:39:30.203Z,90.10
2018-04-16T00:42:02.971Z,90.00
2018-04-16T00:44:36.003Z,90.40
2018-04-16T00:47:08.328Z,90.30
2018-04-16T00:49:41.375Z,90.70
2018-04-16T00:52:13.642Z,90.60
2018-04-16T00:54:45.894Z,90.70
2018-04-16T00:57:18.170Z,90.60
2018-04-16T00:59:50.367Z,90.70
2018-04-16T01:02:23.077Z,90.80
2018-04-16T01:04:55.247Z,90.80
2018-04-16T01:07:28.078Z,90.80
2018-04-16T01:34:22.473Z,91.40
2018-04-16T01:36:56.706Z,91.40
2018-04-16T01:39:30.782Z,91.40
2018-04-16T01:42:03.469Z,91.40
2018-04-16T01:44:37.833Z,91.40
2018-04-16T01:47:10.223Z,91.40
2018-04-16T01:49:43.124Z,91.40
2018-04-16T03:32:02.310Z,92.80
2018-04-16T03:34:35.812Z,92.70
2018-04-16T03:37:08.202Z,92.60
2018-04-16T03:39:41.441Z,92.70
2018-04-16T03:42:15.099Z,92.80
2018-04-16T03:44:49.982Z,92.70
2018-04-16T03:50:02.564Z,92.80
2018-04-16T03:52:36.045Z,92.60
2018-04-16T04:51:23.383Z,92.10
2018-04-16T04:53:49.565Z,91.80
2018-04-16T04:56:15.733Z,91.80
2018-04-16T04:58:42.771Z,91.70
2018-04-16T05:01:09.935Z,91.50
2018-04-16T05:03:36.864Z,91.60
2018-04-16T05:06:03.081Z,91.60
2018-04-16T05:08:29.363Z,91.50
2018-04-16T05:11:06.084Z,91.50
2018-04-16T05:13:32.504Z,91.50
2018-04-16T05:15:58.757Z,91.60
2018-04-16T05:18:40.958Z,91.60
2018-04-16T05:21:14.954Z,91.60
2018-04-16T05:23:47.651Z,91.50
2018-04-16T05:26:23.154Z,91.40
2018-04-16T05:29:01.648Z,91.50
2018-04-16T05:31:38.607Z,91.40
2018-04-16T05:37:27.603Z,90.80
2018-04-16T05:40:04.642Z,90.60
2018-04-16T05:42:33.195Z,90.40
2018-04-16T05:45:01.926Z,90.50
2018-04-16T05:47:39.232Z,90.30
2018-04-16T05:50:05.872Z,90.20
2018-04-16T05:55:16.404Z,89.90
2018-04-16T05:57:45.962Z,89.60
2018-04-16T06:00:13.275Z,89.00
2018-04-16T06:02:40.137Z,88.80
2018-04-16T06:05:11.153Z,89.30
2018-04-16T06:10:26.334Z,88.40
2018-04-16T06:12:53.408Z,87.50
2018-04-16T06:15:25.936Z,88.10
2018-04-16T06:20:56.303Z,86.50
2018-04-16T06:32:16.582Z,87.30
2018-04-16T06:34:42.732Z,87.10
2018-04-16T06:37:09.042Z,86.80
2018-04-16T06:39:35.723Z,86.40
2018-04-16T06:42:03.002Z,85.80
2018-04-16T06:44:31.186Z,83.50
2018-04-16T06:46:57.450Z,83.50
2018-04-16T06:49:24.904Z,82.20
2018-04-16T06:54:27.965Z,81.00
2018-04-16T06:56:54.280Z,80.60
2018-04-16T06:59:20.532Z,81.00
2018-04-16T07:01:57.947Z,80.60
2018-04-16T07:07:48.900Z,79.60
2018-04-16T07:10:24.037Z,79.00
2018-04-16T07:22:05.053Z,77.20
2018-04-16T07:39:48.851Z,76.50
2018-04-16T07:42:17.692Z,75.70
2018-04-16T07:53:55.265Z,75.20
2018-04-16T07:56:25.658Z,75.40
2018-04-16T07:58:53.995Z,75.70
2018-04-16T08:01:22.467Z,75.50
2018-04-16T08:03:50.026Z,74.40
2018-04-16T08:06:16.834Z,74.80
2018-04-16T08:08:43.340Z,74.00
2018-04-16T08:11:09.739Z,73.90
2018-04-16T08:13:37.172Z,73.80
2018-04-16T08:16:04.470Z,73.70
2018-04-16T08:18:31.038Z,73.50
2018-04-16T08:20:57.844Z,73.10
2018-04-16T08:23:25.227Z,72.90
2018-04-16T08:25:55.599Z,71.30
2018-04-16T08:28:25.798Z,70.80
2018-04-16T08:31:07.395Z,70.00
2018-04-16T08:33:34.589Z,69.60
2018-04-16T08:36:02.391Z,69.00
2018-04-16T08:38:30.425Z,70.50
2018-04-16T08:40:57.178Z,71.00
2018-04-16T08:43:25.971Z,71.20
2018-04-16T08:45:53.952Z,70.50
2018-04-16T08:48:21.913Z,70.50
2018-04-16T08:50:49.621Z,69.90
2018-04-16T08:53:17.468Z,70.50
2018-04-16T08:55:48.142Z,68.60
2018-04-16T08:58:14.857Z,68.40
2018-04-16T09:00:51.320Z,67.30
2018-04-16T09:03:18.686Z,66.10
2018-04-16T09:05:50.552Z,66.10
2018-04-16T09:08:28.145Z,66.60
2018-04-16T09:10:54.944Z,68.10
2018-04-16T09:16:14.585Z,67.30
2018-04-16T09:21:16.677Z,67.80
2018-04-16T09:23:43.983Z,66.80
2018-04-16T09:26:10.474Z,66.30
2018-04-16T09:28:37.800Z,66.30
2018-04-16T09:31:04.992Z,64.50
2018-04-16T09:33:32.757Z,64.50
2018-04-16T09:36:17.176Z,63.30
2018-04-16T09:38:43.817Z,64.40
2018-04-16T09:41:10.265Z,64.00
2018-04-16T09:43:37.037Z,63.10
2018-04-16T09:46:03.437Z,62.80
2018-04-16T09:48:30.563Z,61.60
2018-04-16T09:50:56.969Z,61.50
2018-04-16T09:53:23.748Z,62.50
2018-04-16T09:55:52.363Z,60.70
2018-04-16T09:58:20.445Z,61.30
2018-04-16T10:00:49.863Z,60.60
2018-04-16T10:03:16.994Z,59.50
2018-04-16T10:05:43.547Z,59.60
2018-04-16T10:08:09.758Z,59.20
2018-04-16T10:10:36.058Z,59.40
2018-04-16T10:13:04.064Z,58.40
2018-04-16T10:15:30.311Z,57.10
2018-04-16T10:17:56.662Z,57.10
2018-04-16T10:20:22.901Z,56.80
2018-04-16T10:22:49.337Z,56.10
2018-04-16T10:25:16.860Z,58.30
2018-04-16T10:27:43.080Z,58.10
2018-04-16T10:30:09.689Z,58.50
2018-04-16T10:32:36.754Z,57.70
2018-04-16T10:35:03.261Z,57.50
2018-04-16T10:37:32.966Z,58.30
2018-04-16T10:39:59.435Z,59.00
2018-04-16T10:42:30.370Z,56.70
2018-04-16T10:44:59.297Z,57.00
2018-04-16T10:47:25.829Z,58.60
2018-04-16T10:49:53.165Z,58.50
2018-04-16T10:52:36.255Z,57.90
2018-04-16T10:55:05.923Z,55.00
2018-04-16T10:57:32.303Z,54.90
2018-04-16T10:59:59.371Z,56.10
2018-04-16T11:02:25.913Z,56.00
2018-04-16T11:04:54.446Z,55.10
2018-04-16T11:07:27.149Z,56.40
2018-04-16T11:09:54.176Z,56.30
2018-04-16T11:12:20.515Z,56.30
2018-04-16T11:14:46.761Z,56.50
2018-04-16T11:20:16.224Z,57.40
2018-04-16T11:22:44.950Z,55.80
2018-04-16T11:25:12.713Z,56.20
2018-04-16T11:27:39.277Z,54.80
2018-04-16T11:30:05.736Z,54.00
2018-04-16T11:32:32.205Z,55.40
2018-04-16T11:34:58.523Z,55.90
2018-04-16T11:37:24.869Z,56.30
2018-04-16T11:39:51.508Z,56.10
2018-04-16T11:42:17.927Z,56.00
2018-04-16T11:44:44.117Z,55.40
2018-04-16T11:47:10.394Z,54.40
2018-04-16T11:49:36.672Z,53.80
2018-04-16T11:52:03.912Z,51.90
2018-04-16T11:54:30.870Z,51.70
2018-04-16T11:56:57.186Z,51.20
2018-04-16T11:59:23.339Z,51.30
2018-04-16T12:01:49.602Z,52.20
2018-04-16T12:04:16.000Z,52.40
2018-04-16T12:06:42.221Z,51.10
2018-04-16T12:09:09.341Z,47.00
2018-04-16T12:11:35.704Z,47.00
2018-04-16T12:14:02.718Z,50.20
2018-04-16T12:16:29.112Z,50.20
2018-04-16T12:18:55.439Z,49.50
2018-04-16T12:21:22.002Z,48.50
2018-04-16T12:23:48.386Z,48.80
2018-04-16T12:26:14.586Z,47.20
2018-04-16T12:28:40.795Z,48.00
2018-04-16T12:31:07.077Z,48.00
2018-04-16T12:33:34.038Z,47.40
2018-04-16T12:36:00.237Z,47.40
2018-04-16T12:38:27.142Z,49.20
2018-04-16T12:40:53.364Z,49.10
2018-04-16T12:43:20.061Z,47.50
2018-04-16T12:45:46.233Z,47.00
2018-04-16T12:48:12.661Z,47.00
2018-04-16T12:50:38.950Z,47.40
2018-04-16T12:53:07.677Z,49.00
2018-04-16T12:55:34.017Z,49.00
2018-04-16T12:58:00.441Z,47.70
2018-04-16T13:00:26.962Z,46.80
2018-04-16T13:02:53.575Z,47.40
2018-04-16T13:05:21.203Z,48.00
2018-04-16T13:07:48.215Z,46.00
2018-04-16T13:10:14.964Z,46.20
2018-04-16T13:12:42.089Z,47.70
2018-04-16T13:15:08.618Z,47.60
2018-04-16T13:17:34.948Z,48.00
2018-04-16T13:20:01.129Z,45.80
2018-04-16T13:22:27.449Z,46.90
2018-04-16T13:24:54.268Z,47.60
2018-04-16T13:27:20.455Z,46.90
2018-04-16T13:29:46.944Z,45.50
2018-04-16T13:32:13.138Z,45.90
2018-04-16T13:34:39.689Z,46.10
2018-04-16T13:37:06.315Z,45.40
2018-04-16T13:39:32.669Z,45.00
2018-04-16T13:41:59.063Z,45.30
2018-04-16T13:44:26.011Z,46.30
2018-04-16T13:46:52.342Z,46.30
2018-04-16T13:49:18.571Z,46.30
2018-04-16T13:51:44.949Z,46.50
2018-04-16T13:54:11.330Z,47.60
2018-04-16T13:56:38.657Z,47.40
2018-04-16T13:59:05.169Z,47.40
2018-04-16T14:01:32.221Z,48.10
2018-04-16T14:03:58.363Z,48.00
2018-04-16T14:06:24.662Z,47.20
2018-04-16T14:08:51.355Z,46.50
2018-04-16T14:11:18.153Z,46.20
2018-04-16T14:13:44.613Z,45.10
2018-04-16T14:16:10.965Z,45.70
2018-04-16T14:18:37.295Z,46.10
2018-04-16T14:21:04.579Z,46.20
2018-04-16T14:23:31.009Z,46.20
2018-04-16T14:25:57.322Z,46.50
2018-04-16T14:28:23.860Z,46.90
2018-04-16T14:30:50.390Z,45.40
2018-04-16T14:33:16.793Z,45.10
2018-04-16T14:35:43.248Z,44.00
2018-04-16T14:38:11.875Z,44.90
2018-04-16T14:40:44.548Z,44.70
2018-04-16T14:43:11.106Z,43.60
2018-04-16T14:45:43.383Z,43.50
2018-04-16T14:48:11.163Z,41.90
2018-04-16T14:50:40.982Z,41.60
2018-04-16T14:53:10.250Z,41.70
2018-04-16T14:55:37.776Z,41.50
2018-04-16T14:58:10.875Z,41.50
2018-04-16T15:00:38.031Z,40.50
2018-04-16T15:03:04.685Z,39.90
2018-04-16T15:05:31.938Z,39.20
2018-04-16T15:08:06.613Z,39.50
2018-04-16T15:10:36.979Z,39.90
2018-04-16T15:13:04.199Z,40.60
2018-04-16T15:21:31.260Z,40.10
2018-04-16T15:24:01.773Z,38.90
2018-04-16T15:26:34.598Z,37.10
2018-04-16T15:29:02.940Z,37.10
2018-04-16T15:31:31.893Z,37.30
2018-04-16T15:34:02.829Z,39.30
2018-04-16T15:36:33.510Z,38.40
2018-04-16T15:39:00.268Z,38.40
2018-04-16T15:41:27.244Z,35.80
2018-04-16T15:43:53.752Z,36.60
2018-04-16T15:46:30.074Z,35.50
2018-04-16T15:48:57.775Z,34.20
2018-04-16T15:51:30.791Z,33.70
2018-04-16T15:53:57.476Z,32.40
2018-04-16T15:56:50.191Z,30.70
2018-04-16T15:59:19.763Z,30.60
2018-04-16T16:01:47.006Z,29.90
2018-04-16T16:04:18.697Z,30.60
2018-04-16T16:06:51.121Z,31.10
2018-04-16T16:09:20.281Z,30.90
2018-04-16T16:12:02.546Z,30.90
2018-04-16T16:14:33.569Z,29.60
2018-04-16T16:16:59.781Z,29.80
2018-04-16T16:19:29.523Z,29.10
2018-04-16T16:21:55.917Z,29.80
2018-04-16T16:24:22.961Z,31.10
2018-04-16T16:26:49.991Z,32.80
2018-04-16T16:29:16.222Z,33.10
2018-04-16T16:31:46.184Z,35.30
2018-04-16T16:34:13.446Z,35.30
2018-04-16T16:36:40.538Z,36.60
2018-04-16T16:39:08.338Z,37.70
2018-04-16T16:41:35.729Z,37.60
2018-04-16T16:44:02.768Z,38.00
2018-04-16T16:46:29.198Z,37.60
2018-04-16T16:48:55.559Z,36.70
2018-04-16T16:51:24.159Z,37.10
2018-04-16T16:59:57.771Z,39.60
2018-04-16T17:02:29.077Z,39.70
2018-04-16T17:05:00.268Z,41.20
2018-04-16T17:07:29.435Z,41.30
2018-04-16T17:12:36.886Z,42.80
2018-04-16T17:15:07.073Z,42.60
2018-04-16T17:17:36.253Z,42.50
2018-04-16T17:20:04.009Z,43.00
2018-04-16T17:22:30.989Z,44.10
2018-04-16T17:27:37.676Z,44.30
2018-04-16T17:30:06.265Z,45.20
2018-04-16T17:32:34.630Z,45.00
2018-04-16T17:35:12.115Z,45.20
2018-04-16T17:37:44.851Z,45.00
2018-04-16T17:40:13.320Z,44.10
2018-04-16T17:42:49.099Z,44.30
2018-04-16T17:51:45.949Z,44.40
2018-04-16T17:54:12.948Z,45.70
2018-04-16T17:56:48.380Z,46.20
2018-04-16T17:59:21.439Z,46.20
2018-04-16T18:01:48.669Z,46.70
2018-04-16T18:04:16.177Z,47.40
2018-04-16T18:06:51.400Z,47.90
2018-04-16T18:18:16.983Z,49.90
2018-04-16T18:20:43.896Z,50.40
2018-04-16T18:23:11.026Z,50.40
2018-04-16T18:25:37.182Z,50.40
2018-04-16T18:28:03.353Z,50.70
2018-04-16T18:30:29.730Z,51.30
2018-04-16T18:32:55.878Z,51.30
2018-04-16T18:35:22.045Z,51.70
2018-04-16T18:37:48.215Z,52.00
2018-04-16T18:40:14.875Z,52.40
2018-04-16T18:42:42.035Z,56.10
2018-04-16T18:45:09.058Z,55.10
2018-04-16T18:47:35.377Z,55.10
2018-04-16T18:50:01.634Z,54.30
2018-04-16T18:52:28.061Z,54.30
2018-04-16T18:54:55.011Z,54.70
2018-04-16T19:00:26.843Z,54.60
2018-04-16T19:02:54.621Z,55.70
2018-04-16T19:05:22.392Z,55.20
2018-04-16T19:07:48.941Z,54.70
2018-04-16T19:10:17.120Z,55.20
2018-04-16T19:12:45.767Z,55.70
2018-04-16T19:15:17.454Z,55.70
2018-04-16T19:17:49.952Z,55.50
2018-04-16T19:20:23.308Z,56.20
2018-04-16T19:22:49.870Z,55.90
2018-04-16T19:25:16.890Z,56.30
2018-04-16T19:27:49.023Z,56.70
2018-04-16T19:30:15.342Z,57.10
2018-04-16T19:32:47.547Z,57.60
2018-04-16T19:35:13.711Z,58.20
2018-04-16T19:37:39.896Z,60.40
2018-04-16T19:40:06.127Z,59.90
2018-04-16T19:42:38.319Z,60.30
2018-04-16T19:45:04.522Z,62.60
2018-04-16T19:47:30.658Z,64.30
2018-04-16T19:50:02.784Z,64.30
2018-04-16T19:52:29.710Z,65.00
2018-04-16T19:54:55.860Z,65.00
2018-04-16T19:57:28.162Z,65.80
2018-04-16T19:59:54.306Z,67.00
2018-04-16T20:02:26.566Z,68.50
2018-04-16T20:04:52.753Z,69.40
2018-04-16T20:07:18.887Z,70.30
2018-04-16T20:09:45.840Z,71.00
2018-04-16T20:12:13.153Z,72.30
2018-04-16T20:14:39.319Z,72.30
2018-04-16T20:17:06.013Z,73.10
2018-04-16T20:19:32.586Z,73.00
2018-04-16T20:21:58.923Z,73.50
2018-04-16T20:24:25.899Z,74.20
2018-04-16T20:26:52.472Z,74.60
2018-04-16T20:29:18.868Z,74.90
2018-04-16T20:31:46.466Z,75.20
2018-04-16T20:34:13.448Z,75.80
2018-04-16T20:36:40.425Z,75.80
2018-04-16T20:39:06.955Z,75.80
2018-04-16T20:41:37.865Z,76.60
2018-04-16T20:44:10.284Z,77.00
2018-04-16T20:46:37.627Z,77.10
2018-04-16T20:49:09.651Z,77.10
2018-04-16T20:51:39.621Z,76.30
2018-04-16T20:54:08.034Z,74.70
2018-04-16T20:59:12.289Z,76.20
2018-04-16T21:01:42.126Z,76.40
2018-04-16T21:04:13.992Z,76.30
2018-04-16T21:06:45.252Z,77.20
2018-04-16T21:09:15.689Z,77.80
2018-04-16T21:11:53.022Z,78.30
2018-04-16T21:16:59.133Z,78.70
2018-04-16T21:19:30.148Z,79.10
2018-04-16T21:22:01.868Z,79.20
2018-04-16T21:27:13.822Z,79.60
2018-04-16T21:29:47.347Z,80.50
2018-04-16T21:32:19.141Z,80.10
2018-04-16T21:34:48.692Z,80.50
2018-04-16T21:37:19.312Z,81.10
2018-04-16T21:39:52.924Z,79.90
2018-04-16T21:42:24.937Z,78.40
2018-04-16T21:44:55.001Z,78.60
2018-04-16T21:47:28.234Z,78.80
2018-04-16T21:49:59.246Z,78.30
2018-04-16T21:52:27.131Z,78.00
2018-04-16T21:54:53.335Z,77.90
2018-04-16T21:57:19.502Z,78.70
2018-04-16T21:59:46.125Z,79.10
2018-04-16T22:02:13.092Z,79.10
2018-04-16T22:04:42.309Z,79.40
2018-04-16T22:07:13.386Z,79.30
2018-04-16T22:09:42.593Z,79.50
2018-04-16T22:12:12.522Z,80.40
2018-04-16T22:14:41.707Z,81.30
2018-04-16T22:17:10.956Z,81.50
2018-04-16T22:19:41.162Z,81.90
2018-04-16T22:22:10.745Z,81.80
2018-04-16T22:24:40.821Z,82.50
2018-04-16T22:27:12.356Z,82.80
2018-04-16T22:29:43.875Z,82.20
2018-04-16T22:32:15.182Z,82.30
2018-04-16T22:34:47.952Z,83.20
2018-04-16T22:37:18.083Z,83.20
2018-04-16T22:39:47.896Z,82.80
2018-04-16T22:42:17.703Z,83.10
2018-04-16T22:44:48.680Z,82.80
2018-04-16T22:47:16.284Z,83.80
2018-04-16T22:49:47.181Z,84.30
2018-04-16T22:52:17.611Z,84.40
2018-04-16T22:54:47.372Z,83.80
2018-04-16T22:57:18.012Z,83.50
